createdAt,value
2023-02-28T00:01:36.940Z,101483.34
2023-02-28T00:04:04.341Z,101481.44
2023-02-28T00:06:31.637Z,101481.47
2023-02-28T00:08:58.964Z,101491.75
2023-02-28T00:11:26.400Z,101494.44
2023-02-28T00:13:53.903Z,101495.78
2023-02-28T00:16:24.867Z,101508.19
2023-02-28T00:18:52.461Z,101506.03
2023-02-28T00:21:20.849Z,101507.66
2023-02-28T00:23:48.312Z,101509.81
2023-02-28T00:26:15.606Z,101517.09
2023-02-28T00:28:46.190Z,101515.44
2023-02-28T00:31:13.693Z,101520.81
2023-02-28T00:33:41.008Z,101516.22
2023-02-28T00:36:11.664Z,101522.41
2023-02-28T00:38:40.213Z,101518.72
2023-02-28T00:41:08.567Z,101527.06
2023-02-28T00:43:38.415Z,101529.22
2023-02-28T00:46:06.219Z,101530.31
2023-02-28T00:48:33.952Z,101529.78
2023-02-28T00:51:02.523Z,101537.81
2023-02-28T00:53:30.695Z,101531.09
2023-02-28T00:55:59.433Z,101529.47
2023-02-28T00:58:27.685Z,101537.00
2023-02-28T01:00:55.424Z,101537.81
2023-02-28T01:03:23.790Z,101538.13
2023-02-28T01:05:51.549Z,101544.91
2023-02-28T01:08:18.843Z,101538.63
2023-02-28T01:10:46.547Z,101541.81
2023-02-28T01:13:14.210Z,101541.31
2023-02-28T01:15:46.689Z,101542.41
2023-02-28T01:18:14.007Z,101550.28
2023-02-28T01:20:41.378Z,101553.69
2023-02-28T01:23:10.120Z,101546.13
2023-02-28T01:25:37.857Z,101547.78
2023-02-28T01:28:06.896Z,101537.78
2023-02-28T01:30:35.429Z,101544.22
2023-02-28T01:33:02.746Z,101538.53
2023-02-28T01:35:33.630Z,101534.81
2023-02-28T01:38:09.533Z,101536.44
2023-02-28T01:40:43.242Z,101543.41
2023-02-28T01:43:30.882Z,101544.53
2023-02-28T01:45:59.580Z,101538.78
2023-02-28T01:48:33.561Z,101541.72
2023-02-28T01:51:11.161Z,101540.47
2023-02-28T01:53:44.916Z,101536.41
2023-02-28T01:56:21.409Z,101544.72
2023-02-28T01:58:53.192Z,101548.28
2023-02-28T02:01:23.523Z,101539.41
2023-02-28T02:03:59.719Z,101532.91
2023-02-28T02:06:31.783Z,101529.91
2023-02-28T02:08:59.157Z,101530.72
2023-02-28T02:11:27.305Z,101531.53
2023-02-28T02:14:14.585Z,101531.59
2023-02-28T02:17:06.861Z,101534.25
2023-02-28T02:19:52.943Z,101524.56
2023-02-28T02:22:39.835Z,101522.16
2023-02-28T02:25:17.949Z,101528.09
2023-02-28T02:27:54.421Z,101521.84
2023-02-28T02:30:40.419Z,101525.94
2023-02-28T02:33:18.200Z,101516.50
2023-02-28T02:36:20.686Z,101515.16
2023-02-28T02:39:14.295Z,101510.56
2023-02-28T02:41:48.980Z,101521.09
2023-02-28T02:44:21.538Z,101521.34
2023-02-28T02:46:51.252Z,101522.16
2023-02-28T02:49:29.688Z,101520.03
2023-02-28T02:52:01.783Z,101529.44
2023-02-28T02:54:32.028Z,101522.97
2023-02-28T02:57:05.779Z,101515.69
2023-02-28T02:59:34.723Z,101517.31
2023-02-28T03:02:07.302Z,101518.91
2023-02-28T03:04:44.435Z,101516.75
2023-02-28T03:07:11.785Z,101522.38
2023-02-28T03:09:39.928Z,101523.75
2023-02-28T03:12:13.932Z,101519.19
2023-02-28T03:15:33.295Z,101521.31
2023-02-28T03:18:12.528Z,101521.84
2023-02-28T03:20:53.335Z,101516.69
2023-02-28T03:23:24.558Z,101522.16
2023-02-28T03:26:05.117Z,101519.19
2023-02-28T03:28:52.021Z,101517.28
2023-02-28T03:31:25.319Z,101507.84
2023-02-28T03:33:59.645Z,101522.91
2023-02-28T03:36:30.921Z,101524.00
2023-02-28T03:39:06.574Z,101521.31
2023-02-28T03:41:41.048Z,101513.19
2023-02-28T03:44:16.494Z,101520.69
2023-02-28T03:46:51.998Z,101532.78
2023-02-28T03:49:24.751Z,101534.19
2023-02-28T03:51:55.135Z,101529.31
2023-02-28T03:54:37.788Z,101526.25
2023-02-28T03:57:28.072Z,101527.63
2023-02-28T04:00:02.812Z,101537.59
2023-02-28T04:02:43.278Z,101544.56
2023-02-28T04:05:10.760Z,101543.75
2023-02-28T04:07:38.277Z,101540.75
2023-02-28T04:10:06.208Z,101541.06
2023-02-28T04:12:33.535Z,101540.53
2023-02-28T04:15:00.842Z,101547.78
2023-02-28T04:17:28.770Z,101548.63
2023-02-28T04:19:58.199Z,101553.41
2023-02-28T04:22:28.694Z,101558.63
2023-02-28T04:24:55.982Z,101556.44
2023-02-28T04:27:23.770Z,101567.53
2023-02-28T04:29:51.054Z,101567.78
2023-02-28T04:32:18.588Z,101570.50
2023-02-28T04:34:45.989Z,101567.78
2023-02-28T04:37:14.423Z,101555.91
2023-02-28T04:39:42.935Z,101556.97
2023-02-28T04:42:11.529Z,101566.66
2023-02-28T04:44:38.790Z,101565.06
2023-02-28T04:47:06.348Z,101559.75
2023-02-28T04:49:33.742Z,101560.50
2023-02-28T04:52:01.162Z,101567.47
2023-02-28T04:54:29.420Z,101557.09
2023-02-28T04:56:57.060Z,101558.47
2023-02-28T04:59:24.541Z,101555.84
2023-02-28T05:01:51.968Z,101552.09
2023-02-28T05:04:19.384Z,101565.91
2023-02-28T05:06:46.754Z,101564.00
2023-02-28T05:09:14.096Z,101565.91
2023-02-28T05:11:41.836Z,101559.41
2023-02-28T05:14:14.979Z,101561.38
2023-02-28T05:16:42.651Z,101569.66
2023-02-28T05:19:10.397Z,101556.72
2023-02-28T05:21:40.887Z,101564.28
2023-02-28T05:24:11.924Z,101564.06
2023-02-28T05:26:41.959Z,101564.31
2023-02-28T05:29:10.137Z,101562.16
2023-02-28T05:31:38.969Z,101560.56
2023-02-28T05:34:06.476Z,101558.06
2023-02-28T05:36:34.194Z,101559.44
2023-02-28T05:39:01.602Z,101554.06
2023-02-28T05:41:29.454Z,101560.22
2023-02-28T05:43:58.765Z,101567.56
2023-02-28T05:46:26.473Z,101563.75
2023-02-28T05:48:53.895Z,101563.44
2023-02-28T05:51:21.220Z,101558.38
2023-02-28T05:53:50.198Z,101561.06
2023-02-28T05:56:17.547Z,101549.94
2023-02-28T05:58:44.921Z,101559.97
2023-02-28T06:01:32.177Z,101567.63
2023-02-28T06:04:01.128Z,101562.97
2023-02-28T06:06:29.151Z,101570.31
2023-02-28T06:08:57.452Z,101573.88
2023-02-28T06:11:28.659Z,101579.50
2023-02-28T06:14:01.562Z,101575.56
2023-02-28T06:16:30.229Z,101579.19
2023-02-28T06:19:02.787Z,101586.22
2023-02-28T06:21:31.342Z,101591.56
2023-02-28T06:24:00.604Z,101598.38
2023-02-28T06:26:28.088Z,101595.97
2023-02-28T06:28:55.797Z,101605.50
2023-02-28T06:31:24.291Z,101597.66
2023-02-28T06:33:51.817Z,101604.38
2023-02-28T06:36:19.378Z,101595.09
2023-02-28T06:38:46.893Z,101591.75
2023-02-28T06:41:14.233Z,101592.78
2023-02-28T06:43:43.172Z,101594.22
2023-02-28T06:46:14.561Z,101589.97
2023-02-28T06:48:43.991Z,101600.59
2023-02-28T06:51:15.737Z,101603.94
2023-02-28T06:53:43.117Z,101602.13
2023-02-28T06:56:14.208Z,101600.91
2023-02-28T06:58:41.883Z,101611.38
2023-02-28T07:01:09.790Z,101610.91
2023-02-28T07:03:37.752Z,101606.25
2023-02-28T07:06:06.598Z,101607.56
2023-02-28T07:08:35.393Z,101605.56
2023-02-28T07:11:03.591Z,101612.44
2023-02-28T07:13:31.064Z,101600.91
2023-02-28T07:16:03.160Z,101606.84
2023-02-28T07:18:30.568Z,101610.16
2023-02-28T07:20:58.345Z,101605.06
2023-02-28T07:23:25.778Z,101607.34
2023-02-28T07:25:54.055Z,101610.16
2023-02-28T07:28:21.794Z,101606.13
2023-02-28T07:30:49.366Z,101609.94
2023-02-28T07:33:17.157Z,101605.94
2023-02-28T07:35:44.779Z,101610.34
2023-02-28T07:38:13.579Z,101607.97
2023-02-28T07:40:41.225Z,101607.25
2023-02-28T07:43:08.656Z,101609.28
2023-02-28T07:45:36.148Z,101600.56
2023-02-28T07:48:06.192Z,101609.47
2023-02-28T07:50:33.476Z,101601.63
2023-02-28T07:53:00.918Z,101605.25
2023-02-28T07:55:28.511Z,101616.84
2023-02-28T07:57:56.088Z,101610.09
2023-02-28T08:00:24.147Z,101611.91
2023-02-28T08:02:54.265Z,101600.66
2023-02-28T08:05:22.259Z,101606.41
2023-02-28T08:07:50.814Z,101608.75
2023-02-28T08:10:18.337Z,101607.84
2023-02-28T08:12:48.009Z,101603.47
2023-02-28T08:15:15.361Z,101603.31
2023-02-28T08:17:42.701Z,101610.00
2023-02-28T08:20:11.395Z,101607.56
2023-02-28T08:22:38.773Z,101607.00
2023-02-28T08:25:09.503Z,101607.19
2023-02-28T08:27:37.418Z,101611.56
2023-02-28T08:30:05.169Z,101612.09
2023-02-28T08:32:34.471Z,101608.00
2023-02-28T08:35:04.800Z,101614.75
2023-02-28T08:37:32.178Z,101617.56
2023-02-28T08:39:59.500Z,101613.97
2023-02-28T08:42:26.983Z,101617.44
2023-02-28T08:44:54.338Z,101617.34
2023-02-28T08:47:21.684Z,101616.19
2023-02-28T08:49:49.066Z,101604.38
2023-02-28T08:52:16.577Z,101603.75
2023-02-28T08:54:43.889Z,101608.16
2023-02-28T08:57:11.278Z,101608.97
2023-02-28T08:59:38.671Z,101601.16
2023-02-28T09:02:06.229Z,101610.84
2023-02-28T09:04:35.147Z,101615.16
2023-02-28T09:07:02.488Z,101623.13
2023-02-28T09:09:29.780Z,101622.97
2023-02-28T09:11:57.732Z,101616.97
2023-02-28T09:14:26.049Z,101634.19
2023-02-28T09:16:53.558Z,101623.66
2023-02-28T09:19:20.903Z,101618.78
2023-02-28T09:21:48.251Z,101617.22
2023-02-28T09:24:19.149Z,101617.63
2023-02-28T09:27:03.356Z,101619.50
2023-02-28T09:29:33.812Z,101614.06
2023-02-28T09:32:01.878Z,101623.59
2023-02-28T09:34:31.893Z,101620.66
2023-02-28T09:36:59.378Z,101616.28
2023-02-28T09:39:27.863Z,101619.53
2023-02-28T09:41:56.844Z,101621.88
2023-02-28T09:44:31.884Z,101625.28
2023-02-28T09:47:06.310Z,101620.38
2023-02-28T09:49:41.078Z,101620.78
2023-02-28T09:52:17.120Z,101622.34
2023-02-28T09:54:44.444Z,101609.22
2023-02-28T09:57:28.290Z,101612.75
2023-02-28T10:00:02.516Z,101606.53
2023-02-28T10:02:39.845Z,101598.94
2023-02-28T10:05:11.963Z,101612.44
2023-02-28T10:07:59.995Z,101612.94
2023-02-28T10:10:34.075Z,101609.28
2023-02-28T10:13:05.623Z,101603.38
2023-02-28T10:15:36.378Z,101614.19
2023-02-28T10:18:09.168Z,101613.94
2023-02-28T10:20:41.058Z,101612.88
2023-02-28T10:23:20.339Z,101619.91
2023-02-28T10:26:17.619Z,101612.47
2023-02-28T10:28:46.597Z,101610.88
2023-02-28T10:31:19.936Z,101612.56
2023-02-28T10:33:48.905Z,101602.63
2023-02-28T10:36:20.856Z,101619.13
2023-02-28T10:38:48.317Z,101612.44
2023-02-28T10:41:27.753Z,101615.53
2023-02-28T10:44:14.772Z,101602.88
2023-02-28T10:46:43.482Z,101598.41
2023-02-28T10:49:30.319Z,101603.38
2023-02-28T10:52:00.788Z,101602.41
2023-02-28T10:54:38.917Z,101602.97
2023-02-28T10:57:19.645Z,101592.09
2023-02-28T10:59:51.220Z,101585.88
2023-02-28T11:02:38.609Z,101585.19
2023-02-28T11:05:37.147Z,101580.72
2023-02-28T11:08:15.104Z,101581.53
2023-02-28T11:10:48.258Z,101582.53
2023-02-28T11:13:21.859Z,101573.94
2023-02-28T11:15:55.237Z,101566.41
2023-02-28T11:18:30.171Z,101568.88
2023-02-28T11:21:00.647Z,101566.81
2023-02-28T11:23:30.760Z,101559.38
2023-02-28T11:26:02.035Z,101559.78
2023-02-28T11:28:35.080Z,101559.28
2023-02-28T11:31:06.643Z,101563.06
2023-02-28T11:33:51.303Z,101562.69
2023-02-28T11:36:25.823Z,101544.81
2023-02-28T11:39:03.618Z,101529.69
2023-02-28T11:41:55.407Z,101527.47
2023-02-28T11:44:55.971Z,101519.06
2023-02-28T11:47:35.412Z,101532.09
2023-02-28T11:50:08.729Z,101520.53
2023-02-28T11:52:48.302Z,101526.09
2023-02-28T11:55:22.092Z,101516.34
2023-02-28T11:58:22.806Z,101519.31
2023-02-28T12:00:56.132Z,101509.63
2023-02-28T12:04:05.216Z,101511.88
2023-02-28T12:06:46.225Z,101491.63
2023-02-28T12:09:37.993Z,101495.44
2023-02-28T12:12:28.776Z,101500.97
2023-02-28T12:15:17.440Z,101488.72
2023-02-28T12:18:31.923Z,101489.50
2023-02-28T12:21:06.647Z,101487.47
2023-02-28T12:24:21.619Z,101484.03
2023-02-28T12:26:51.553Z,101473.69
2023-02-28T12:29:31.119Z,101472.94
2023-02-28T12:32:15.424Z,101470.66
2023-02-28T12:34:48.620Z,101465.44
2023-02-28T12:37:26.054Z,101457.09
2023-02-28T12:40:01.069Z,101455.38
2023-02-28T12:42:36.161Z,101461.75
2023-02-28T12:45:11.330Z,101448.47
2023-02-28T12:47:41.849Z,101458.22
2023-02-28T12:50:12.660Z,101445.53
2023-02-28T12:53:01.417Z,101436.84
2023-02-28T12:55:44.085Z,101436.53
2023-02-28T12:58:35.941Z,101441.38
2023-02-28T13:01:29.139Z,101431.41
2023-02-28T13:04:18.696Z,101434.47
2023-02-28T13:07:00.918Z,101430.78
2023-02-28T13:09:30.513Z,101428.03
2023-02-28T13:11:59.383Z,101435.88
2023-02-28T13:14:44.652Z,101423.53
2023-02-28T13:17:23.394Z,101422.56
2023-02-28T13:19:53.507Z,101413.09
2023-02-28T13:22:39.879Z,101405.84
2023-02-28T13:25:25.796Z,101407.78
2023-02-28T13:27:58.032Z,101407.25
2023-02-28T13:30:53.975Z,101399.88
2023-02-28T13:33:32.066Z,101405.53
2023-02-28T13:36:19.447Z,101407.31
2023-02-28T13:38:48.843Z,101400.53
2023-02-28T13:41:36.386Z,101399.41
2023-02-28T13:44:18.251Z,101388.63
2023-02-28T13:46:48.367Z,101396.53
2023-02-28T13:49:27.649Z,101391.06
2023-02-28T13:52:07.039Z,101400.84
2023-02-28T13:54:49.432Z,101381.41
2023-02-28T13:57:35.439Z,101386.22
2023-02-28T14:00:33.641Z,101380.75
2023-02-28T14:03:07.416Z,101388.16
2023-02-28T14:05:37.079Z,101384.28
2023-02-28T14:08:24.034Z,101376.91
2023-02-28T14:11:04.049Z,101378.84
2023-02-28T14:13:48.310Z,101383.09
2023-02-28T14:16:29.882Z,101373.47
2023-02-28T14:19:02.530Z,101376.16
2023-02-28T14:21:36.616Z,101382.31
2023-02-28T14:24:25.937Z,101364.81
2023-02-28T14:27:15.119Z,101361.47
2023-02-28T14:29:52.589Z,101362.09
2023-02-28T14:32:36.344Z,101366.25
2023-02-28T14:35:12.595Z,101358.84
2023-02-28T14:37:42.116Z,101365.91
2023-02-28T14:40:30.658Z,101359.91
2023-02-28T14:43:01.472Z,101351.78
2023-02-28T14:45:34.653Z,101354.38
2023-02-28T14:48:03.566Z,101352.41
2023-02-28T14:50:34.777Z,101356.03
2023-02-28T14:53:03.216Z,101338.50
2023-02-28T14:55:33.483Z,101352.50
2023-02-28T14:58:05.358Z,101344.59
2023-02-28T15:00:35.743Z,101342.53
2023-02-28T15:03:32.932Z,101353.53
2023-02-28T15:06:03.401Z,101352.13
2023-02-28T15:08:36.793Z,101341.47
2023-02-28T15:11:24.715Z,101346.53
2023-02-28T15:13:55.665Z,101334.63
2023-02-28T15:16:37.504Z,101347.84
2023-02-28T15:19:13.888Z,101337.94
2023-02-28T15:21:49.116Z,101336.59
2023-02-28T15:24:28.276Z,101341.69
2023-02-28T15:27:03.853Z,101340.59
2023-02-28T15:29:38.479Z,101335.75
2023-02-28T15:32:08.613Z,101343.88
2023-02-28T15:34:45.059Z,101334.88
2023-02-28T15:37:29.520Z,101356.78
2023-02-28T15:39:59.704Z,101348.66
2023-02-28T15:42:29.866Z,101350.53
2023-02-28T15:44:58.330Z,101347.44
2023-02-28T15:47:29.539Z,101349.91
2023-02-28T15:50:11.644Z,101354.38
2023-02-28T15:52:43.517Z,101356.09
2023-02-28T15:55:23.778Z,101352.59
2023-02-28T15:58:01.128Z,101354.88
2023-02-28T16:00:30.570Z,101351.81
2023-02-28T16:02:58.163Z,101350.84
2023-02-28T16:05:32.933Z,101346.69
2023-02-28T16:08:11.264Z,101349.09
2023-02-28T16:10:38.609Z,101339.53
2023-02-28T16:13:06.056Z,101344.34
2023-02-28T16:15:42.535Z,101356.28
2023-02-28T16:18:13.113Z,101344.03
2023-02-28T16:20:40.937Z,101349.50
2023-02-28T16:23:09.109Z,101351.72
2023-02-28T16:25:40.449Z,101353.28
2023-02-28T16:28:18.740Z,101339.53
2023-02-28T16:30:46.283Z,101341.81
2023-02-28T16:33:16.125Z,101346.19
2023-02-28T16:35:43.479Z,101345.31
2023-02-28T16:38:10.996Z,101338.38
2023-02-28T16:40:38.488Z,101351.34
2023-02-28T16:43:16.140Z,101348.31
2023-02-28T16:45:43.758Z,101354.06
2023-02-28T16:48:14.602Z,101347.94
2023-02-28T16:50:43.221Z,101344.41
2023-02-28T16:53:10.543Z,101348.13
2023-02-28T16:55:38.126Z,101353.69
2023-02-28T16:58:05.496Z,101344.72
2023-02-28T17:00:34.036Z,101348.50
2023-02-28T17:03:03.749Z,101352.13
2023-02-28T17:05:39.436Z,101347.28
2023-02-28T17:08:06.788Z,101353.16
2023-02-28T17:10:34.225Z,101348.91
2023-02-28T17:13:14.305Z,101358.97
2023-02-28T17:15:44.589Z,101361.56
2023-02-28T17:18:18.405Z,101368.00
2023-02-28T17:20:47.240Z,101375.13
2023-02-28T17:23:14.644Z,101375.50
2023-02-28T17:25:41.947Z,101373.28
2023-02-28T17:28:10.174Z,101374.94
2023-02-28T17:30:37.504Z,101374.28
2023-02-28T17:33:04.903Z,101375.81
2023-02-28T17:35:32.215Z,101379.03
2023-02-28T17:37:59.613Z,101382.72
2023-02-28T17:40:26.947Z,101393.97
2023-02-28T17:42:56.124Z,101392.94
2023-02-28T17:45:23.648Z,101396.81
2023-02-28T17:47:51.421Z,101411.56
2023-02-28T17:50:22.170Z,101406.06
2023-02-28T17:52:51.441Z,101403.13
2023-02-28T17:55:20.072Z,101407.50
2023-02-28T17:57:47.645Z,101408.69
2023-02-28T18:00:19.459Z,101409.03
2023-02-28T18:02:46.940Z,101411.56
2023-02-28T18:05:14.301Z,101408.50
2023-02-28T18:07:41.956Z,101412.31
2023-02-28T18:10:20.488Z,101411.25
2023-02-28T18:12:52.768Z,101412.41
2023-02-28T18:15:21.611Z,101419.19
2023-02-28T18:17:50.261Z,101418.91
2023-02-28T18:20:18.502Z,101422.19
2023-02-28T18:22:46.108Z,101416.53
2023-02-28T18:25:16.914Z,101419.56
2023-02-28T18:27:54.168Z,101420.69
2023-02-28T18:30:22.210Z,101421.28
2023-02-28T18:32:49.654Z,101422.88
2023-02-28T18:35:34.972Z,101441.28
2023-02-28T18:38:14.738Z,101434.59
2023-02-28T18:40:43.546Z,101434.31
2023-02-28T18:43:10.952Z,101432.91
2023-02-28T18:45:39.389Z,101437.59
2023-02-28T18:48:06.858Z,101435.50
2023-02-28T18:50:39.525Z,101439.38
2023-02-28T18:53:06.928Z,101438.88
2023-02-28T18:55:34.244Z,101448.41
2023-02-28T18:58:01.549Z,101449.72
2023-02-28T19:00:29.006Z,101458.16
2023-02-28T19:02:56.576Z,101454.06
2023-02-28T19:05:24.050Z,101450.56
2023-02-28T19:07:51.429Z,101458.38
2023-02-28T19:10:18.924Z,101456.22
2023-02-28T19:12:47.100Z,101457.88
2023-02-28T19:15:14.413Z,101448.06
2023-02-28T19:17:42.042Z,101449.72
2023-02-28T19:20:10.527Z,101454.63
2023-02-28T19:22:38.621Z,101453.00
2023-02-28T19:25:06.916Z,101457.84
2023-02-28T19:27:34.359Z,101454.59
2023-02-28T19:30:01.657Z,101458.44
2023-02-28T19:32:29.186Z,101456.28
2023-02-28T19:34:58.043Z,101458.44
2023-02-28T19:37:25.440Z,101467.69
2023-02-28T19:39:56.893Z,101467.69
2023-02-28T19:42:24.803Z,101463.34
2023-02-28T19:44:52.242Z,101455.16
2023-02-28T19:47:19.622Z,101462.25
2023-02-28T19:49:47.004Z,101453.06
2023-02-28T19:52:15.542Z,101458.75
2023-02-28T19:54:43.294Z,101461.53
2023-02-28T19:57:10.916Z,101453.16
2023-02-28T19:59:40.218Z,101449.91
2023-02-28T20:02:19.180Z,101459.69
2023-02-28T20:04:48.820Z,101456.72
2023-02-28T20:07:20.209Z,101455.03
2023-02-28T20:09:48.310Z,101449.38
2023-02-28T20:12:24.035Z,101449.38
2023-02-28T20:14:53.863Z,101460.47
2023-02-28T20:17:21.276Z,101458.59
2023-02-28T20:19:49.681Z,101446.72
2023-02-28T20:22:19.193Z,101448.03
2023-02-28T20:24:48.477Z,101429.69
2023-02-28T20:27:15.898Z,101428.38
2023-02-28T20:29:43.328Z,101425.66
2023-02-28T20:32:10.869Z,101436.25
2023-02-28T20:34:38.232Z,101441.38
2023-02-28T20:37:05.656Z,101436.81
2023-02-28T20:39:33.106Z,101441.41
2023-02-28T20:42:00.524Z,101434.63
2023-02-28T20:44:27.917Z,101434.34
2023-02-28T20:46:55.389Z,101444.06
2023-02-28T20:49:23.674Z,101432.09
2023-02-28T20:51:51.131Z,101437.78
2023-02-28T20:54:20.933Z,101435.91
2023-02-28T20:56:48.360Z,101438.06
2023-02-28T20:59:15.882Z,101445.16
2023-02-28T21:01:43.454Z,101440.00
2023-02-28T21:04:10.919Z,101447.06
2023-02-28T21:06:43.137Z,101450.34
2023-02-28T21:09:12.710Z,101444.16
2023-02-28T21:11:41.073Z,101447.16
2023-02-28T21:14:13.319Z,101444.69
2023-02-28T21:16:41.510Z,101437.97
2023-02-28T21:19:09.079Z,101439.31
2023-02-28T21:21:43.817Z,101440.38
2023-02-28T21:24:13.363Z,101436.63
2023-02-28T21:26:41.899Z,101441.47
2023-02-28T21:29:09.241Z,101440.69
2023-02-28T21:31:38.284Z,101445.53
2023-02-28T21:34:08.626Z,101445.53
2023-02-28T21:36:39.676Z,101446.34
2023-02-28T21:39:12.185Z,101444.69
2023-02-28T21:41:39.949Z,101445.72
2023-02-28T21:44:07.619Z,101453.47
2023-02-28T21:46:35.242Z,101443.19
2023-02-28T21:49:02.724Z,101441.69
2023-02-28T21:51:31.523Z,101447.88
2023-02-28T21:54:00.703Z,101444.59
2023-02-28T21:56:31.002Z,101443.31
2023-02-28T21:59:02.160Z,101444.94
2023-02-28T22:01:37.892Z,101445.72
2023-02-28T22:04:08.490Z,101454.41
2023-02-28T22:06:39.445Z,101442.50
2023-02-28T22:09:09.133Z,101440.00
2023-02-28T22:11:37.905Z,101438.63
2023-02-28T22:14:06.848Z,101434.47
2023-02-28T22:16:49.592Z,101429.81
2023-02-28T22:19:19.790Z,101412.47
2023-02-28T22:21:47.764Z,101425.75
2023-02-28T22:24:17.694Z,101428.72
2023-02-28T22:26:45.585Z,101429.19
2023-02-28T22:29:13.007Z,101438.34
2023-02-28T22:31:40.403Z,101426.16
2023-02-28T22:34:10.555Z,101422.94
2023-02-28T22:36:40.106Z,101414.56
2023-02-28T22:39:09.900Z,101411.13
2023-02-28T22:41:37.480Z,101416.53
2023-02-28T22:44:05.747Z,101422.19
2023-02-28T22:46:34.921Z,101421.91
2023-02-28T22:49:04.053Z,101432.16
2023-02-28T22:51:31.767Z,101440.25
2023-02-28T22:53:59.166Z,101439.28
2023-02-28T22:56:29.728Z,101436.81
2023-02-28T22:58:59.543Z,101439.56
2023-02-28T23:01:30.747Z,101443.38
2023-02-28T23:03:59.165Z,101437.72
2023-02-28T23:06:42.988Z,101433.34
2023-02-28T23:09:18.196Z,101429.50
2023-02-28T23:11:48.404Z,101431.91
2023-02-28T23:14:17.358Z,101415.69
2023-02-28T23:16:47.322Z,101412.28
2023-02-28T23:19:17.893Z,101414.25
2023-02-28T23:21:46.752Z,101423.44
2023-02-28T23:24:16.452Z,101416.41
2023-02-28T23:26:46.508Z,101423.16
2023-02-28T23:29:15.539Z,101423.75
2023-02-28T23:31:43.172Z,101423.25
2023-02-28T23:34:11.326Z,101420.47
2023-02-28T23:36:46.295Z,101422.91
2023-02-28T23:39:16.878Z,101415.88
2023-02-28T23:41:44.484Z,101410.22
2023-02-28T23:44:16.848Z,101414.78
2023-02-28T23:46:50.255Z,101401.59
2023-02-28T23:49:21.606Z,101411.31
2023-02-28T23:51:50.441Z,101403.53
2023-02-28T23:54:18.950Z,101401.88
2023-02-28T23:56:46.551Z,101396.19
2023-02-28T23:59:14.155Z,101396.47
